Cardwell, Missouri
Current Conditions -  °F | °C
As of 8:35 PM on Sunday 23 Nov 2014 (Local Time) from K4M9 Reporting Station
Broken Clouds Broken Clouds  
Wind Chill: 59°   Ceiling: 600
Heat Index: 59°   Visibility: 10mi
Dew Point: 59°   Wind: 15mph
Humidity: 100%   Direction: 210°SSW
Pressure: 29.37"   Gusts: NA
Location:  36.05°N, 90.29°W
Report Text: K4M9 240235Z AUTO 21013KT 10SM BKN006 15/15 A2937 RMK AO2
Loading
Personal Weather Stations






























Interactive Weather Map New forecast layout! Learn more

10-Day Weather Forecast

Advertisements
Track Severe Weather on mobile